sensor_id;sensor_type;location;lat;lon;timestamp;pressure;altitude;pressure_sealevel;temperature;humidity
76052;BME280;64751;48.708;9.710;2022-12-18T00:01:15;98697.56;;;-6.87;78.00
76052;BME280;64751;48.708;9.710;2022-12-18T00:03:43;98695.28;;;-6.90;78.88
76052;BME280;64751;48.708;9.710;2022-12-18T00:06:11;98676.84;;;-7.22;75.90
76052;BME280;64751;48.708;9.710;2022-12-18T00:08:40;98691.25;;;-7.21;75.37
76052;BME280;64751;48.708;9.710;2022-12-18T00:11:08;98698.03;;;-7.30;76.38
76052;BME280;64751;48.708;9.710;2022-12-18T00:13:37;98691.28;;;-7.41;76.14
76052;BME280;64751;48.708;9.710;2022-12-18T00:16:08;98694.53;;;-7.39;77.39
76052;BME280;64751;48.708;9.710;2022-12-18T00:18:37;98694.25;;;-7.35;76.77
76052;BME280;64751;48.708;9.710;2022-12-18T00:21:06;98696.16;;;-7.38;75.73
76052;BME280;64751;48.708;9.710;2022-12-18T00:23:35;98695.31;;;-7.48;74.86
76052;BME280;64751;48.708;9.710;2022-12-18T00:26:10;98704.22;;;-7.61;73.20
76052;BME280;64751;48.708;9.710;2022-12-18T00:28:41;98701.53;;;-7.69;73.41
76052;BME280;64751;48.708;9.710;2022-12-18T00:31:11;98688.97;;;-7.72;74.69
76052;BME280;64751;48.708;9.710;2022-12-18T00:33:40;98696.63;;;-7.82;74.34
76052;BME280;64751;48.708;9.710;2022-12-18T00:36:12;98698.41;;;-7.82;74.84
76052;BME280;64751;48.708;9.710;2022-12-18T00:38:40;98700.84;;;-7.81;74.31
76052;BME280;64751;48.708;9.710;2022-12-18T00:41:10;98706.22;;;-7.84;74.63
76052;BME280;64751;48.708;9.710;2022-12-18T00:43:39;98707.44;;;-7.78;74.96
76052;BME280;64751;48.708;9.710;2022-12-18T00:46:06;98704.50;;;-7.74;74.94
76052;BME280;64751;48.708;9.710;2022-12-18T00:48:35;98697.72;;;-7.84;75.51
76052;BME280;64751;48.708;9.710;2022-12-18T00:51:02;98710.13;;;-7.89;74.93
76052;BME280;64751;48.708;9.710;2022-12-18T00:53:30;98719.31;;;-7.87;76.99
76052;BME280;64751;48.708;9.710;2022-12-18T00:55:57;98717.72;;;-7.78;78.20
76052;BME280;64751;48.708;9.710;2022-12-18T00:58:25;98718.41;;;-7.67;79.20
76052;BME280;64751;48.708;9.710;2022-12-18T01:00:52;98718.00;;;-7.53;79.66
76052;BME280;64751;48.708;9.710;2022-12-18T01:03:19;98710.06;;;-7.40;80.21
76052;BME280;64751;48.708;9.710;2022-12-18T01:05:48;98701.16;;;-7.26;80.46
76052;BME280;64751;48.708;9.710;2022-12-18T01:08:18;98703.41;;;-7.14;79.64
76052;BME280;64751;48.708;9.710;2022-12-18T01:10:45;98697.31;;;-7.03;79.49
76052;BME280;64751;48.708;9.710;2022-12-18T01:13:13;98704.50;;;-6.97;78.69
76052;BME280;64751;48.708;9.710;2022-12-18T01:15:47;98699.06;;;-6.94;78.11
76052;BME280;64751;48.708;9.710;2022-12-18T01:18:15;98698.00;;;-7.01;78.69
76052;BME280;64751;48.708;9.710;2022-12-18T01:20:43;98693.16;;;-7.04;78.80
76052;BME280;64751;48.708;9.710;2022-12-18T01:23:11;98696.53;;;-7.04;79.43
76052;BME280;64751;48.708;9.710;2022-12-18T01:25:39;98703.94;;;-7.01;79.34
76052;BME280;64751;48.708;9.710;2022-12-18T01:28:09;98705.16;;;-6.95;78.95
76052;BME280;64751;48.708;9.710;2022-12-18T01:30:37;98700.81;;;-6.95;78.64
76052;BME280;64751;48.708;9.710;2022-12-18T01:33:05;98706.09;;;-6.87;78.72
76052;BME280;64751;48.708;9.710;2022-12-18T01:35:32;98706.91;;;-6.86;78.70
76052;BME280;64751;48.708;9.710;2022-12-18T01:38:02;98710.81;;;-6.82;78.48
76052;BME280;64751;48.708;9.710;2022-12-18T01:40:31;98720.00;;;-6.89;78.48
76052;BME280;64751;48.708;9.710;2022-12-18T01:42:58;98729.19;;;-6.87;78.28
76052;BME280;64751;48.708;9.710;2022-12-18T01:45:27;98734.31;;;-6.87;78.14
76052;BME280;64751;48.708;9.710;2022-12-18T01:47:56;98737.97;;;-6.89;78.64
76052;BME280;64751;48.708;9.710;2022-12-18T01:50:28;98728.53;;;-6.89;78.22
76052;BME280;64751;48.708;9.710;2022-12-18T01:53:00;98736.06;;;-6.87;78.31
76052;BME280;64751;48.708;9.710;2022-12-18T01:55:33;98737.97;;;-6.89;78.72
76052;BME280;64751;48.708;9.710;2022-12-18T01:58:03;98734.31;;;-6.87;78.35
76052;BME280;64751;48.708;9.710;2022-12-18T02:00:31;98727.84;;;-6.91;78.24
76052;BME280;64751;48.708;9.710;2022-12-18T02:02:58;98727.56;;;-6.88;78.27
76052;BME280;64751;48.708;9.710;2022-12-18T02:05:35;98721.63;;;-6.88;78.23
76052;BME280;64751;48.708;9.710;2022-12-18T02:08:09;98722.41;;;-6.88;78.23
76052;BME280;64751;48.708;9.710;2022-12-18T02:10:46;98695.16;;;-6.98;78.08
76052;BME280;64751;48.708;9.710;2022-12-18T02:13:19;98723.81;;;-6.93;78.24
76052;BME280;64751;48.708;9.710;2022-12-18T02:15:55;98717.84;;;-6.94;78.47
76052;BME280;64751;48.708;9.710;2022-12-18T02:18:30;98710.16;;;-6.94;78.38
76052;BME280;64751;48.708;9.710;2022-12-18T02:21:00;98715.03;;;-7.00;78.28
76052;BME280;64751;48.708;9.710;2022-12-18T02:23:45;98721.91;;;-7.01;78.58
76052;BME280;64751;48.708;9.710;2022-12-18T02:26:21;98728.53;;;-6.98;78.90
76052;BME280;64751;48.708;9.710;2022-12-18T02:28:54;98708.03;;;-7.17;79.55
76052;BME280;64751;48.708;9.710;2022-12-18T02:31:25;98727.19;;;-7.02;79.63
76052;BME280;64751;48.708;9.710;2022-12-18T02:33:56;98731.25;;;-7.09;80.01
76052;BME280;64751;48.708;9.710;2022-12-18T02:36:28;98730.16;;;-7.07;79.48
76052;BME280;64751;48.708;9.710;2022-12-18T02:38:58;98714.22;;;-7.10;79.65
76052;BME280;64751;48.708;9.710;2022-12-18T02:41:28;98728.00;;;-7.11;80.06
76052;BME280;64751;48.708;9.710;2022-12-18T02:43:59;98741.34;;;-7.08;80.07
76052;BME280;64751;48.708;9.710;2022-12-18T02:46:32;98724.75;;;-7.13;79.09
76052;BME280;64751;48.708;9.710;2022-12-18T02:49:12;98723.66;;;-7.01;78.97
76052;BME280;64751;48.708;9.710;2022-12-18T02:51:49;98732.56;;;-7.05;79.88
76052;BME280;64751;48.708;9.710;2022-12-18T02:54:26;98729.59;;;-7.01;79.83
76052;BME280;64751;48.708;9.710;2022-12-18T02:57:03;98734.31;;;-6.96;79.81
76052;BME280;64751;48.708;9.710;2022-12-18T02:59:38;98740.13;;;-6.94;79.77
76052;BME280;64751;48.708;9.710;2022-12-18T03:02:17;98740.81;;;-6.92;79.92
76052;BME280;64751;48.708;9.710;2022-12-18T03:04:49;98740.53;;;-6.99;80.60
76052;BME280;64751;48.708;9.710;2022-12-18T03:07:30;98732.72;;;-7.07;80.52
76052;BME280;64751;48.708;9.710;2022-12-18T03:10:02;98744.44;;;-6.95;80.45
76052;BME280;64751;48.708;9.710;2022-12-18T03:12:34;98745.41;;;-6.96;80.44
76052;BME280;64751;48.708;9.710;2022-12-18T03:15:08;98745.00;;;-6.91;80.98
76052;BME280;64751;48.708;9.710;2022-12-18T03:17:40;98748.50;;;-6.92;82.03
76052;BME280;64751;48.708;9.710;2022-12-18T03:20:12;98750.28;;;-6.93;82.61
76052;BME280;64751;48.708;9.710;2022-12-18T03:22:43;98743.09;;;-6.89;82.41
76052;BME280;64751;48.708;9.710;2022-12-18T03:25:14;98749.72;;;-6.87;81.85
76052;BME280;64751;48.708;9.710;2022-12-18T03:27:47;98740.38;;;-6.88;81.76
76052;BME280;64751;48.708;9.710;2022-12-18T03:30:17;98740.66;;;-6.81;81.90
76052;BME280;64751;48.708;9.710;2022-12-18T03:32:48;98745.78;;;-6.81;81.85
76052;BME280;64751;48.708;9.710;2022-12-18T03:35:23;98748.50;;;-6.83;82.19
76052;BME280;64751;48.708;9.710;2022-12-18T03:37:53;98752.56;;;-6.80;82.61
76052;BME280;64751;48.708;9.710;2022-12-18T03:40:23;98752.28;;;-6.77;82.05
76052;BME280;64751;48.708;9.710;2022-12-18T03:42:59;98748.06;;;-6.69;82.27
76052;BME280;64751;48.708;9.710;2022-12-18T03:45:34;98753.63;;;-6.63;82.00
76052;BME280;64751;48.708;9.710;2022-12-18T03:48:08;98746.31;;;-6.68;82.12
76052;BME280;64751;48.708;9.710;2022-12-18T03:50:48;98762.09;;;-6.53;81.99
76052;BME280;64751;48.708;9.710;2022-12-18T03:53:26;98753.47;;;-6.52;82.28
76052;BME280;64751;48.708;9.710;2022-12-18T03:55:56;98763.16;;;-6.46;81.71
76052;BME280;64751;48.708;9.710;2022-12-18T03:58:32;98755.88;;;-6.51;81.55
76052;BME280;64751;48.708;9.710;2022-12-18T04:01:14;98765.47;;;-6.43;81.56
76052;BME280;64751;48.708;9.710;2022-12-18T04:03:44;98762.47;;;-6.39;82.06
76052;BME280;64751;48.708;9.710;2022-12-18T04:06:14;98758.69;;;-6.35;81.97
76052;BME280;64751;48.708;9.710;2022-12-18T04:08:44;98757.44;;;-6.31;81.82
76052;BME280;64751;48.708;9.710;2022-12-18T04:11:16;98756.63;;;-6.31;82.36
76052;BME280;64751;48.708;9.710;2022-12-18T04:13:46;98759.75;;;-6.37;83.32
76052;BME280;64751;48.708;9.710;2022-12-18T04:16:20;98755.38;;;-6.27;83.03
76052;BME280;64751;48.708;9.710;2022-12-18T04:18:52;98752.41;;;-6.23;82.52
76052;BME280;64751;48.708;9.710;2022-12-18T04:21:21;98750.13;;;-6.26;83.46
76052;BME280;64751;48.708;9.710;2022-12-18T04:23:50;98743.47;;;-6.19;82.82
76052;BME280;64751;48.708;9.710;2022-12-18T04:26:20;98748.63;;;-6.19;82.35
76052;BME280;64751;48.708;9.710;2022-12-18T04:29:12;98750.88;;;-6.16;82.69
76052;BME280;64751;48.708;9.710;2022-12-18T04:31:39;98750.22;;;-6.18;82.96
76052;BME280;64751;48.708;9.710;2022-12-18T04:34:07;98761.31;;;-6.17;83.38
76052;BME280;64751;48.708;9.710;2022-12-18T04:36:40;98746.06;;;-6.19;83.56
76052;BME280;64751;48.708;9.710;2022-12-18T04:39:08;98760.34;;;-6.16;84.08
76052;BME280;64751;48.708;9.710;2022-12-18T04:41:35;98756.19;;;-6.17;84.44
76052;BME280;64751;48.708;9.710;2022-12-18T04:44:04;98748.31;;;-6.16;84.28
76052;BME280;64751;48.708;9.710;2022-12-18T04:46:33;98754.28;;;-6.15;84.51
76052;BME280;64751;48.708;9.710;2022-12-18T04:49:01;98754.69;;;-6.20;85.00
76052;BME280;64751;48.708;9.710;2022-12-18T04:51:28;98750.06;;;-6.16;84.62
76052;BME280;64751;48.708;9.710;2022-12-18T04:53:56;98763.63;;;-6.14;84.30
76052;BME280;64751;48.708;9.710;2022-12-18T04:56:23;98774.31;;;-6.19;84.57
76052;BME280;64751;48.708;9.710;2022-12-18T04:58:51;98764.28;;;-6.12;84.42
76052;BME280;64751;48.708;9.710;2022-12-18T05:01:19;98770.22;;;-6.12;84.59
76052;BME280;64751;48.708;9.710;2022-12-18T05:03:48;98770.19;;;-6.02;83.99
76052;BME280;64751;48.708;9.710;2022-12-18T05:06:15;98781.66;;;-5.97;83.98
76052;BME280;64751;48.708;9.710;2022-12-18T05:08:43;98777.84;;;-5.93;83.54
76052;BME280;64751;48.708;9.710;2022-12-18T05:11:12;98784.50;;;-6.00;84.26
76052;BME280;64751;48.708;9.710;2022-12-18T05:13:41;98783.19;;;-6.04;84.50
76052;BME280;64751;48.708;9.710;2022-12-18T05:16:09;98780.22;;;-6.09;85.35
76052;BME280;64751;48.708;9.710;2022-12-18T05:18:37;98779.41;;;-6.09;85.31
76052;BME280;64751;48.708;9.710;2022-12-18T05:21:07;98786.69;;;-6.05;85.13
76052;BME280;64751;48.708;9.710;2022-12-18T05:23:35;98776.97;;;-6.11;85.37
76052;BME280;64751;48.708;9.710;2022-12-18T05:26:04;98780.13;;;-6.17;85.44
76052;BME280;64751;48.708;9.710;2022-12-18T05:28:34;98770.34;;;-6.13;85.86
76052;BME280;64751;48.708;9.710;2022-12-18T05:31:03;98768.06;;;-6.16;85.78
76052;BME280;64751;48.708;9.710;2022-12-18T05:33:33;98761.16;;;-6.16;85.26
76052;BME280;64751;48.708;9.710;2022-12-18T05:36:02;98769.84;;;-6.17;85.79
76052;BME280;64751;48.708;9.710;2022-12-18T05:38:32;98769.28;;;-6.11;85.66
76052;BME280;64751;48.708;9.710;2022-12-18T05:41:00;98751.28;;;-6.11;85.28
76052;BME280;64751;48.708;9.710;2022-12-18T05:43:28;98760.09;;;-6.13;85.17
76052;BME280;64751;48.708;9.710;2022-12-18T05:45:56;98760.09;;;-6.13;84.92
76052;BME280;64751;48.708;9.710;2022-12-18T05:48:23;98759.94;;;-6.12;85.18
76052;BME280;64751;48.708;9.710;2022-12-18T05:50:51;98759.25;;;-6.14;85.15
76052;BME280;64751;48.708;9.710;2022-12-18T05:53:20;98767.88;;;-6.05;84.78
76052;BME280;64751;48.708;9.710;2022-12-18T05:55:49;98761.81;;;-6.04;84.89
76052;BME280;64751;48.708;9.710;2022-12-18T05:58:16;98766.03;;;-6.13;85.35
76052;BME280;64751;48.708;9.710;2022-12-18T06:00:45;98768.59;;;-6.13;85.47
76052;BME280;64751;48.708;9.710;2022-12-18T06:03:13;98771.31;;;-6.14;85.48
76052;BME280;64751;48.708;9.710;2022-12-18T06:05:43;98772.53;;;-6.18;85.29
76052;BME280;64751;48.708;9.710;2022-12-18T06:08:12;98770.22;;;-6.12;85.26
76052;BME280;64751;48.708;9.710;2022-12-18T06:10:40;98779.41;;;-6.09;85.50
76052;BME280;64751;48.708;9.710;2022-12-18T06:13:09;98786.59;;;-6.13;85.61
76052;BME280;64751;48.708;9.710;2022-12-18T06:15:37;98788.34;;;-6.13;85.68
76052;BME280;64751;48.708;9.710;2022-12-18T06:18:05;98797.03;;;-6.14;85.61
76052;BME280;64751;48.708;9.710;2022-12-18T06:20:32;98782.38;;;-6.14;85.69
76052;BME280;64751;48.708;9.710;2022-12-18T06:23:03;98784.84;;;-6.12;85.88
76052;BME280;64751;48.708;9.710;2022-12-18T06:25:30;98789.94;;;-6.03;85.72
76052;BME280;64751;48.708;9.710;2022-12-18T06:27:58;98788.56;;;-5.97;85.09
76052;BME280;64751;48.708;9.710;2022-12-18T06:30:27;98784.28;;;-6.06;85.65
76052;BME280;64751;48.708;9.710;2022-12-18T06:32:54;98785.78;;;-6.13;86.14
76052;BME280;64751;48.708;9.710;2022-12-18T06:35:23;98780.50;;;-6.12;86.00
76052;BME280;64751;48.708;9.710;2022-12-18T06:37:50;98790.25;;;-6.15;86.18
76052;BME280;64751;48.708;9.710;2022-12-18T06:40:18;98796.16;;;-6.05;85.91
76052;BME280;64751;48.708;9.710;2022-12-18T06:42:46;98797.53;;;-6.01;85.84
76052;BME280;64751;48.708;9.710;2022-12-18T06:45:13;98781.19;;;-6.10;86.35
76052;BME280;64751;48.708;9.710;2022-12-18T06:47:45;98780.78;;;-6.15;86.00
76052;BME280;64751;48.708;9.710;2022-12-18T06:50:13;98791.56;;;-6.02;85.95
76052;BME280;64751;48.708;9.710;2022-12-18T06:52:40;98778.63;;;-6.10;86.19
76052;BME280;64751;48.708;9.710;2022-12-18T06:55:10;98789.00;;;-6.11;86.21
76052;BME280;64751;48.708;9.710;2022-12-18T06:57:38;98803.34;;;-6.09;86.10
76052;BME280;64751;48.708;9.710;2022-12-18T07:00:07;98791.97;;;-6.06;85.69
76052;BME280;64751;48.708;9.710;2022-12-18T07:02:34;98791.59;;;-6.11;86.40
76052;BME280;64751;48.708;9.710;2022-12-18T07:05:04;98803.03;;;-5.96;86.05
76052;BME280;64751;48.708;9.710;2022-12-18T07:07:33;98801.69;;;-6.00;86.11
76052;BME280;64751;48.708;9.710;2022-12-18T07:10:00;98799.84;;;-6.08;86.43
76052;BME280;64751;48.708;9.710;2022-12-18T07:12:28;98791.50;;;-6.19;86.63
76052;BME280;64751;48.708;9.710;2022-12-18T07:14:55;98823.25;;;-6.11;86.38
76052;BME280;64751;48.708;9.710;2022-12-18T07:17:23;98820.25;;;-6.06;86.17
76052;BME280;64751;48.708;9.710;2022-12-18T07:19:50;98822.44;;;-6.11;86.21
76052;BME280;64751;48.708;9.710;2022-12-18T07:22:19;98818.38;;;-6.14;86.50
76052;BME280;64751;48.708;9.710;2022-12-18T07:24:46;98823.25;;;-6.11;86.73
76052;BME280;64751;48.708;9.710;2022-12-18T07:27:17;98833.53;;;-6.11;86.55
76052;BME280;64751;48.708;9.710;2022-12-18T07:29:44;98830.03;;;-6.10;86.45
76052;BME280;64751;48.708;9.710;2022-12-18T07:32:12;98836.75;;;-6.09;86.42
76052;BME280;64751;48.708;9.710;2022-12-18T07:34:39;98844.88;;;-6.04;86.48
76052;BME280;64751;48.708;9.710;2022-12-18T07:37:06;98840.13;;;-5.99;86.39
76052;BME280;64751;48.708;9.710;2022-12-18T07:39:35;98843.47;;;-5.88;86.00
76052;BME280;64751;48.708;9.710;2022-12-18T07:42:03;98848.75;;;-5.90;86.27
76052;BME280;64751;48.708;9.710;2022-12-18T07:44:48;98848.34;;;-5.85;85.55
76052;BME280;64751;48.708;9.710;2022-12-18T07:47:16;98859.16;;;-5.92;85.63
76052;BME280;64751;48.708;9.710;2022-12-18T07:49:44;98837.56;;;-5.99;86.11
76052;BME280;64751;48.708;9.710;2022-12-18T07:52:11;98848.88;;;-5.92;86.36
76052;BME280;64751;48.708;9.710;2022-12-18T07:54:40;98871.97;;;-5.82;85.76
76052;BME280;64751;48.708;9.710;2022-12-18T07:57:08;98858.16;;;-5.81;85.87
76052;BME280;64751;48.708;9.710;2022-12-18T07:59:36;98859.09;;;-5.82;85.96
76052;BME280;64751;48.708;9.710;2022-12-18T08:02:03;98857.50;;;-5.83;85.95
76052;BME280;64751;48.708;9.710;2022-12-18T08:04:31;98856.13;;;-5.77;85.77
76052;BME280;64751;48.708;9.710;2022-12-18T08:07:00;98855.53;;;-5.71;85.81
76052;BME280;64751;48.708;9.710;2022-12-18T08:09:28;98856.25;;;-5.69;85.77
76052;BME280;64751;48.708;9.710;2022-12-18T08:11:56;98856.34;;;-5.71;85.70
76052;BME280;64751;48.708;9.710;2022-12-18T08:14:24;98852.53;;;-5.67;85.74
76052;BME280;64751;48.708;9.710;2022-12-18T08:16:52;98849.84;;;-5.65;85.84
76052;BME280;64751;48.708;9.710;2022-12-18T08:19:19;98857.56;;;-5.65;85.65
76052;BME280;64751;48.708;9.710;2022-12-18T08:21:47;98844.94;;;-5.59;85.33
76052;BME280;64751;48.708;9.710;2022-12-18T08:24:14;98847.22;;;-5.56;85.40
76052;BME280;64751;48.708;9.710;2022-12-18T08:26:41;98848.28;;;-5.49;85.02
76052;BME280;64751;48.708;9.710;2022-12-18T08:29:10;98846.00;;;-5.52;85.23
76052;BME280;64751;48.708;9.710;2022-12-18T08:31:38;98850.34;;;-5.52;84.82
76052;BME280;64751;48.708;9.710;2022-12-18T08:34:05;98850.59;;;-5.55;84.91
76052;BME280;64751;48.708;9.710;2022-12-18T08:36:33;98856.56;;;-5.55;85.02
76052;BME280;64751;48.708;9.710;2022-12-18T08:39:01;98849.66;;;-5.54;84.62
76052;BME280;64751;48.708;9.710;2022-12-18T08:41:28;98838.28;;;-5.52;84.97
76052;BME280;64751;48.708;9.710;2022-12-18T08:43:56;98849.75;;;-5.46;84.61
76052;BME280;64751;48.708;9.710;2022-12-18T08:46:43;98852.31;;;-5.46;84.59
76052;BME280;64751;48.708;9.710;2022-12-18T08:49:11;98849.88;;;-5.38;84.69
76052;BME280;64751;48.708;9.710;2022-12-18T08:51:39;98853.75;;;-5.34;84.43
76052;BME280;64751;48.708;9.710;2022-12-18T08:54:07;98855.09;;;-5.30;84.19
76052;BME280;64751;48.708;9.710;2022-12-18T08:56:37;98844.63;;;-5.29;84.01
76052;BME280;64751;48.708;9.710;2022-12-18T08:59:05;98844.28;;;-5.34;84.09
76052;BME280;64751;48.708;9.710;2022-12-18T09:01:32;98839.94;;;-5.33;84.40
76052;BME280;64751;48.708;9.710;2022-12-18T09:04:01;98836.41;;;-5.32;84.31
76052;BME280;64751;48.708;9.710;2022-12-18T09:06:29;98849.91;;;-5.21;84.06
76052;BME280;64751;48.708;9.710;2022-12-18T09:08:56;98849.47;;;-5.16;83.38
76052;BME280;64751;48.708;9.710;2022-12-18T09:11:26;98849.75;;;-5.19;83.78
76052;BME280;64751;48.708;9.710;2022-12-18T09:13:54;98844.44;;;-5.18;84.02
76052;BME280;64751;48.708;9.710;2022-12-18T09:16:23;98859.00;;;-5.26;84.34
76052;BME280;64751;48.708;9.710;2022-12-18T09:18:51;98845.47;;;-5.28;84.64
76052;BME280;64751;48.708;9.710;2022-12-18T09:21:21;98842.69;;;-5.17;84.06
76052;BME280;64751;48.708;9.710;2022-12-18T09:23:49;98833.72;;;-5.13;83.69
76052;BME280;64751;48.708;9.710;2022-12-18T09:26:17;98832.09;;;-5.14;83.79
76052;BME280;64751;48.708;9.710;2022-12-18T09:28:45;98830.47;;;-5.15;84.20
76052;BME280;64751;48.708;9.710;2022-12-18T09:31:13;98836.00;;;-5.10;83.62
76052;BME280;64751;48.708;9.710;2022-12-18T09:33:43;98827.69;;;-5.04;83.78
76052;BME280;64751;48.708;9.710;2022-12-18T09:36:13;98828.34;;;-5.02;83.57
76052;BME280;64751;48.708;9.710;2022-12-18T09:38:42;98826.59;;;-5.01;83.66
76052;BME280;64751;48.708;9.710;2022-12-18T09:41:20;98816.34;;;-5.11;83.53
76052;BME280;64751;48.708;9.710;2022-12-18T09:43:53;98820.13;;;-5.05;83.36
76052;BME280;64751;48.708;9.710;2022-12-18T09:46:27;98818.03;;;-5.02;83.65
76052;BME280;64751;48.708;9.710;2022-12-18T09:48:58;98837.75;;;-4.93;83.29
76052;BME280;64751;48.708;9.710;2022-12-18T09:51:28;98819.84;;;-4.85;82.98
76052;BME280;64751;48.708;9.710;2022-12-18T09:54:03;98824.53;;;-4.80;82.66
76052;BME280;64751;48.708;9.710;2022-12-18T09:56:35;98832.41;;;-4.82;82.69
76052;BME280;64751;48.708;9.710;2022-12-18T09:59:04;98823.72;;;-4.81;82.86
76052;BME280;64751;48.708;9.710;2022-12-18T10:01:32;98824.22;;;-4.77;82.59
76052;BME280;64751;48.708;9.710;2022-12-18T10:04:00;98812.53;;;-4.72;82.41
76052;BME280;64751;48.708;9.710;2022-12-18T10:06:31;98824.47;;;-4.71;82.55
76052;BME280;64751;48.708;9.710;2022-12-18T10:09:10;98815.47;;;-4.67;82.37
76052;BME280;64751;48.708;9.710;2022-12-18T10:11:47;98808.53;;;-4.66;82.46
76052;BME280;64751;48.708;9.710;2022-12-18T10:14:21;98800.16;;;-4.68;81.75
76052;BME280;64751;48.708;9.710;2022-12-18T10:16:57;98802.28;;;-4.64;82.77
76052;BME280;64751;48.708;9.710;2022-12-18T10:19:36;98804.06;;;-4.64;81.89
76052;BME280;64751;48.708;9.710;2022-12-18T10:22:13;98793.59;;;-4.63;81.99
76052;BME280;64751;48.708;9.710;2022-12-18T10:24:52;98791.19;;;-4.64;82.21
76052;BME280;64751;48.708;9.710;2022-12-18T10:27:23;98801.50;;;-4.64;82.22
76052;BME280;64751;48.708;9.710;2022-12-18T10:29:52;98798.41;;;-4.68;82.10
76052;BME280;64751;48.708;9.710;2022-12-18T10:32:22;98812.13;;;-4.59;82.35
76052;BME280;64751;48.708;9.710;2022-12-18T10:34:52;98806.69;;;-4.56;81.91
76052;BME280;64751;48.708;9.710;2022-12-18T10:37:22;98819.78;;;-4.50;81.56
76052;BME280;64751;48.708;9.710;2022-12-18T10:40:07;98814.78;;;-4.51;81.82
76052;BME280;64751;48.708;9.710;2022-12-18T10:42:36;98814.34;;;-4.47;81.77
76052;BME280;64751;48.708;9.710;2022-12-18T10:45:12;98814.03;;;-4.44;81.52
76052;BME280;64751;48.708;9.710;2022-12-18T10:47:43;98802.78;;;-4.43;81.36
76052;BME280;64751;48.708;9.710;2022-12-18T10:50:22;98806.94;;;-4.42;81.69
76052;BME280;64751;48.708;9.710;2022-12-18T10:52:55;98818.59;;;-4.37;81.26
76052;BME280;64751;48.708;9.710;2022-12-18T10:55:29;98804.09;;;-4.38;80.79
76052;BME280;64751;48.708;9.710;2022-12-18T10:58:16;98813.28;;;-4.36;80.94
76052;BME280;64751;48.708;9.710;2022-12-18T11:01:02;98820.53;;;-4.39;81.17
76052;BME280;64751;48.708;9.710;2022-12-18T11:03:32;98821.47;;;-4.41;81.09
76052;BME280;64751;48.708;9.710;2022-12-18T11:06:04;98826.19;;;-4.36;80.86
76052;BME280;64751;48.708;9.710;2022-12-18T11:08:32;98828.91;;;-4.37;81.41
76052;BME280;64751;48.708;9.710;2022-12-18T11:11:01;98831.50;;;-4.37;81.10
76052;BME280;64751;48.708;9.710;2022-12-18T11:13:30;98828.59;;;-4.34;81.21
76052;BME280;64751;48.708;9.710;2022-12-18T11:15:59;98826.38;;;-4.29;80.79
76052;BME280;64751;48.708;9.710;2022-12-18T11:18:28;98819.31;;;-4.27;81.21
76052;BME280;64751;48.708;9.710;2022-12-18T11:20:59;98808.03;;;-4.26;80.87
76052;BME280;64751;48.708;9.710;2022-12-18T11:23:27;98803.84;;;-4.27;81.22
76052;BME280;64751;48.708;9.710;2022-12-18T11:26:01;98805.50;;;-4.18;80.69
76052;BME280;64751;48.708;9.710;2022-12-18T11:28:35;98802.47;;;-4.14;81.11
76052;BME280;64751;48.708;9.710;2022-12-18T11:31:22;98801.06;;;-4.08;80.37
76052;BME280;64751;48.708;9.710;2022-12-18T11:33:57;98795.56;;;-4.13;80.74
76052;BME280;64751;48.708;9.710;2022-12-18T11:36:29;98791.88;;;-4.11;80.69
76052;BME280;64751;48.708;9.710;2022-12-18T11:39:03;98794.63;;;-4.04;80.80
76052;BME280;64751;48.708;9.710;2022-12-18T11:41:37;98800.28;;;-4.01;80.61
76052;BME280;64751;48.708;9.710;2022-12-18T11:44:36;98790.78;;;-4.00;80.17
76052;BME280;64751;48.708;9.710;2022-12-18T11:47:15;98785.97;;;-3.95;80.25
76052;BME280;64751;48.708;9.710;2022-12-18T11:49:49;98775.97;;;-3.98;80.26
76052;BME280;64751;48.708;9.710;2022-12-18T11:52:20;98779.53;;;-3.91;80.35
76052;BME280;64751;48.708;9.710;2022-12-18T11:54:50;98778.72;;;-3.92;80.67
76052;BME280;64751;48.708;9.710;2022-12-18T11:57:31;98778.59;;;-3.90;80.36
76052;BME280;64751;48.708;9.710;2022-12-18T12:00:04;98772.09;;;-3.94;79.88
76052;BME280;64751;48.708;9.710;2022-12-18T12:02:51;98773.38;;;-3.98;80.02
76052;BME280;64751;48.708;9.710;2022-12-18T12:05:38;98769.50;;;-4.02;80.59
76052;BME280;64751;48.708;9.710;2022-12-18T12:08:16;98763.38;;;-4.01;80.85
76052;BME280;64751;48.708;9.710;2022-12-18T12:10:54;98754.69;;;-4.00;80.67
76052;BME280;64751;48.708;9.710;2022-12-18T12:13:40;98760.47;;;-3.98;80.18
76052;BME280;64751;48.708;9.710;2022-12-18T12:16:16;98752.44;;;-3.95;80.42
76052;BME280;64751;48.708;9.710;2022-12-18T12:18:58;98742.47;;;-3.90;80.44
76052;BME280;64751;48.708;9.710;2022-12-18T12:21:36;98747.31;;;-3.87;79.83
76052;BME280;64751;48.708;9.710;2022-12-18T12:24:22;98745.72;;;-3.88;80.13
76052;BME280;64751;48.708;9.710;2022-12-18T12:26:58;98746.19;;;-3.93;80.16
76052;BME280;64751;48.708;9.710;2022-12-18T12:29:40;98733.28;;;-3.93;80.05
76052;BME280;64751;48.708;9.710;2022-12-18T12:32:22;98712.59;;;-4.01;80.00
76052;BME280;64751;48.708;9.710;2022-12-18T12:35:05;98737.63;;;-3.93;79.98
76052;BME280;64751;48.708;9.710;2022-12-18T12:37:42;98733.75;;;-3.97;80.81
76052;BME280;64751;48.708;9.710;2022-12-18T12:40:19;98732.75;;;-3.96;80.46
76052;BME280;64751;48.708;9.710;2022-12-18T12:42:50;98730.22;;;-3.88;80.61
76052;BME280;64751;48.708;9.710;2022-12-18T12:45:41;98738.91;;;-3.89;80.28
76052;BME280;64751;48.708;9.710;2022-12-18T12:48:17;98738.28;;;-3.91;80.85
76052;BME280;64751;48.708;9.710;2022-12-18T12:50:46;98740.84;;;-3.91;80.76
76052;BME280;64751;48.708;9.710;2022-12-18T12:53:22;98738.63;;;-3.86;80.36
76052;BME280;64751;48.708;9.710;2022-12-18T12:55:51;98734.94;;;-3.84;80.15
76052;BME280;64751;48.708;9.710;2022-12-18T12:58:28;98742.50;;;-3.82;80.62
76052;BME280;64751;48.708;9.710;2022-12-18T13:01:07;98738.97;;;-3.81;80.41
76052;BME280;64751;48.708;9.710;2022-12-18T13:03:44;98735.41;;;-3.80;80.36
76052;BME280;64751;48.708;9.710;2022-12-18T13:06:16;98737.63;;;-3.85;80.93
76052;BME280;64751;48.708;9.710;2022-12-18T13:08:54;98749.44;;;-3.83;80.61
76052;BME280;64751;48.708;9.710;2022-12-18T13:11:32;98747.38;;;-3.79;80.21
76052;BME280;64751;48.708;9.710;2022-12-18T13:14:21;98737.50;;;-3.84;80.88
76052;BME280;64751;48.708;9.710;2022-12-18T13:16:51;98739.44;;;-3.86;80.83
76052;BME280;64751;48.708;9.710;2022-12-18T13:19:22;98732.47;;;-3.85;80.38
76052;BME280;64751;48.708;9.710;2022-12-18T13:21:54;98738.91;;;-3.89;80.91